Time;durP1;ratioP1;P1;durP2;ratioP2;P2;SDS_P1;SDS_P2;PMS_P1;PMS_P2;Temp;Humidity;BMP_temperature;BMP_pressure;BME280_temperature;BME280_humidity;BME280_pressure;Samples;Min_cycle;Max_cycle;Signal;HPM_P1;HPM_P2
2022/08/27 00:00:52;;;;;;;14.27;3.63;;;;;;;15.02;100.00;101728.84;5286841;28;20413;-74
2022/08/27 00:03:23;;;;;;;9.07;3.55;;;;;;;14.97;100.00;101733.91;5287440;28;20362;-75
2022/08/27 00:05:53;;;;;;;6.88;3.72;;;;;;;14.89;100.00;101729.38;5268480;28;20031;-74
2022/08/27 00:08:24;;;;;;;12.02;3.90;;;;;;;14.83;100.00;101731.91;5281786;28;20400;-74
2022/08/27 00:10:54;;;;;;;13.70;3.80;;;;;;;14.76;100.00;101731.78;5287224;28;20074;-74
2022/08/27 00:13:25;;;;;;;10.15;3.10;;;;;;;14.70;100.00;101730.59;5274894;28;20491;-74
2022/08/27 00:15:55;;;;;;;8.98;3.60;;;;;;;14.68;100.00;101732.63;5259862;28;20028;-75
2022/08/27 00:18:26;;;;;;;9.52;3.75;;;;;;;14.71;100.00;101736.84;5284645;28;20020;-74
2022/08/27 00:20:56;;;;;;;7.78;3.65;;;;;;;14.77;100.00;101733.47;5287633;28;20039;-75
2022/08/27 00:23:28;;;;;;;13.30;3.70;;;;;;;14.80;100.00;101738.50;5281785;28;20027;-75
2022/08/27 00:25:59;;;;;;;12.18;3.50;;;;;;;14.89;100.00;101739.31;5266171;28;20039;-73
2022/08/27 00:28:29;;;;;;;7.43;3.13;;;;;;;14.93;100.00;101728.00;5278157;28;20020;-73
2022/08/27 00:31:00;;;;;;;12.70;3.42;;;;;;;14.95;100.00;101736.78;5288394;28;20019;-74
2022/08/27 00:33:31;;;;;;;7.63;3.33;;;;;;;14.94;100.00;101734.25;5278680;28;20028;-73
2022/08/27 00:36:03;;;;;;;6.55;3.22;;;;;;;14.97;100.00;101737.47;5272884;28;20054;-73
2022/08/27 00:38:34;;;;;;;6.88;3.28;;;;;;;14.97;100.00;101736.63;5276646;28;20024;-74
2022/08/27 00:41:08;;;;;;;8.35;3.65;;;;;;;14.94;100.00;101745.91;5248495;28;20393;-74
2022/08/27 00:43:58;;;;;;;12.15;3.20;;;;;;;14.90;100.00;101744.56;5277748;28;20030;-73
2022/08/27 00:46:49;;;;;;;11.48;3.28;;;;;;;14.88;100.00;101737.66;5265860;28;20031;-74
2022/08/27 00:49:57;;;;;;;7.07;3.53;;;;;;;14.85;100.00;101736.13;5265954;28;20028;-73
2022/08/27 00:52:32;;;;;;;9.65;3.25;;;;;;;14.95;100.00;101728.66;5269840;28;20024;-73
2022/08/27 00:55:08;;;;;;;8.13;3.53;;;;;;;14.98;100.00;101733.72;5286570;28;20084;-73
2022/08/27 00:57:42;;;;;;;7.32;3.38;;;;;;;14.98;100.00;101733.72;5266308;28;20020;-73
2022/08/27 01:00:15;;;;;;;8.68;3.38;;;;;;;14.93;100.00;101727.16;5262259;28;20051;-74
2022/08/27 01:02:47;;;;;;;11.98;3.63;;;;;;;14.87;100.00;101731.41;5287486;28;20051;-73
2022/08/27 01:05:24;;;;;;;9.35;3.50;;;;;;;14.81;100.00;101724.00;5286904;28;20027;-72
2022/08/27 01:08:06;;;;;;;8.75;3.53;;;;;;;14.73;100.00;101724.00;5287230;28;20016;-73
2022/08/27 01:10:38;;;;;;;8.57;2.85;;;;;;;14.72;100.00;101728.56;5287013;28;20065;-73
2022/08/27 01:13:16;;;;;;;10.80;3.08;;;;;;;14.71;100.00;101720.66;5286479;28;20031;-73
2022/08/27 01:15:57;;;;;;;6.60;2.88;;;;;;;14.79;100.00;101715.22;5286797;28;20035;-73
2022/08/27 01:18:32;;;;;;;9.45;3.13;;;;;;;14.74;100.00;101723.81;5286613;28;20104;-72
2022/08/27 01:21:37;;;;;;;8.85;2.92;;;;;;;14.65;100.00;101711.34;5286560;28;20034;-72
2022/08/27 01:24:32;;;;;;;7.05;3.10;;;;;;;14.55;100.00;101712.56;5275699;28;20027;-72
2022/08/27 01:27:18;;;;;;;11.13;4.22;;;;;;;14.44;100.00;101717.25;5272653;28;20496;-73
2022/08/27 01:29:49;;;;;;;19.50;4.35;;;;;;;14.37;100.00;101718.13;5286064;28;20059;-73
2022/08/27 01:32:24;;;;;;;11.10;3.85;;;;;;;14.27;100.00;101721.00;5287187;28;20468;-74
2022/08/27 01:34:55;;;;;;;9.75;4.07;;;;;;;14.17;100.00;101715.78;5261031;28;20097;-73
2022/08/27 01:37:27;;;;;;;19.10;3.88;;;;;;;14.06;100.00;101717.97;5278623;28;20097;-73
2022/08/27 01:39:58;;;;;;;8.77;3.40;;;;;;;13.94;100.00;101717.44;5273318;28;20031;-73
2022/08/27 01:42:33;;;;;;;6.50;3.42;;;;;;;13.84;100.00;101714.88;5286494;28;20030;-74
2022/08/27 01:45:09;;;;;;;15.43;4.25;;;;;;;13.76;100.00;101711.38;5286273;28;20051;-73
2022/08/27 01:47:41;;;;;;;15.30;3.45;;;;;;;13.70;100.00;101713.72;5286535;28;20024;-73
2022/08/27 01:50:15;;;;;;;7.68;3.42;;;;;;;13.66;100.00;101719.59;5286383;28;20380;-73
2022/08/27 01:52:47;;;;;;;10.30;3.20;;;;;;;13.58;100.00;101716.88;5285953;28;20542;-73
2022/08/27 01:55:25;;;;;;;9.05;3.65;;;;;;;13.45;100.00;101723.59;5284652;28;20027;-73
2022/08/27 01:57:56;;;;;;;;;;;;;;;13.35;100.00;101717.47;5275296;28;20421;-73
2022/08/27 02:00:31;;;;;;;13.13;4.75;;;;;;;13.29;100.00;101717.28;5272771;28;20014;-74
2022/08/27 02:03:02;;;;;;;;;;;;;;;13.24;100.00;101716.94;5286610;28;20031;-73
2022/08/27 02:05:34;;;;;;;10.20;3.70;;;;;;;13.21;100.00;101727.03;5271812;28;19911;-73
2022/08/27 02:08:06;;;;;;;10.65;3.92;;;;;;;13.16;100.00;101723.09;5286342;28;20030;-73
2022/08/27 02:10:38;;;;;;;8.88;3.50;;;;;;;13.12;100.00;101719.03;5279397;28;20016;-74
2022/08/27 02:13:11;;;;;;;9.65;3.83;;;;;;;13.07;100.00;101716.00;5278846;28;20123;-73
2022/08/27 02:15:42;;;;;;;12.63;3.90;;;;;;;13.03;100.00;101711.94;5273720;28;20035;-73
2022/08/27 02:18:14;;;;;;;13.02;4.03;;;;;;;12.99;100.00;101714.09;5286161;28;20106;-73
2022/08/27 02:20:45;;;;;;;9.82;4.15;;;;;;;12.94;100.00;101708.34;5286313;28;20431;-74
2022/08/27 02:23:17;;;;;;;6.97;3.83;;;;;;;12.92;100.00;101710.38;5272363;28;20114;-73
2022/08/27 02:25:47;;;;;;;13.93;4.15;;;;;;;12.92;100.00;101704.97;5288447;28;20035;-72
2022/08/27 02:28:18;;;;;;;12.32;3.88;;;;;;;12.99;100.00;101706.00;5289916;28;20377;-72
2022/08/27 02:30:48;;;;;;;7.32;3.95;;;;;;;13.08;100.00;101701.50;5289956;28;20027;-75
2022/08/27 02:33:19;;;;;;;8.48;3.53;;;;;;;13.13;100.00;101702.72;5283204;28;20365;-75
2022/08/27 02:35:49;;;;;;;7.38;3.80;;;;;;;13.21;100.00;101704.59;5287565;28;20024;-75
2022/08/27 02:38:20;;;;;;;13.65;4.18;;;;;;;13.27;100.00;101713.91;5280894;28;20027;-75
2022/08/27 02:40:50;;;;;;;7.30;3.80;;;;;;;13.31;100.00;101699.97;5284805;28;20062;-74
2022/08/27 02:43:21;;;;;;;10.60;3.95;;;;;;;13.37;100.00;101699.28;5289908;28;20015;-74
2022/08/27 02:45:51;;;;;;;13.50;4.65;;;;;;;13.36;100.00;101700.31;5289479;28;20019;-75
2022/08/27 02:48:23;;;;;;;11.20;4.25;;;;;;;13.34;100.00;101699.59;5278525;28;20146;-75
2022/08/27 02:50:54;;;;;;;8.75;4.38;;;;;;;13.33;100.00;101697.09;5273472;28;20384;-74
2022/08/27 02:53:24;;;;;;;9.48;4.20;;;;;;;13.33;100.00;101703.31;5289627;28;20026;-74
2022/08/27 02:55:55;;;;;;;10.90;4.93;;;;;;;13.32;100.00;101698.94;5269193;28;20027;-74
2022/08/27 02:58:25;;;;;;;13.18;5.18;;;;;;;13.30;100.00;101703.63;5282209;28;20011;-75
2022/08/27 03:00:56;;;;;;;7.78;4.72;;;;;;;13.29;100.00;101703.81;5276501;28;20527;-74
2022/08/27 03:03:28;;;;;;;14.93;4.78;;;;;;;13.24;100.00;101700.75;5289031;28;20023;-74
2022/08/27 03:05:58;;;;;;;10.85;4.40;;;;;;;13.16;100.00;101699.69;5288615;28;20039;-73
2022/08/27 03:08:29;;;;;;;8.88;4.68;;;;;;;13.09;100.00;101701.34;5286571;28;20016;-74
2022/08/27 03:10:59;;;;;;;15.10;4.90;;;;;;;13.04;100.00;101702.84;5278772;28;20019;-73
2022/08/27 03:13:30;;;;;;;11.68;5.70;;;;;;;13.02;100.00;101707.53;5275644;28;20027;-74
2022/08/27 03:16:00;;;;;;;14.55;4.72;;;;;;;13.07;100.00;101711.44;5288720;28;20506;-74
2022/08/27 03:18:32;;;;;;;13.20;4.90;;;;;;;13.15;100.00;101707.91;5288977;28;20028;-74
2022/08/27 03:21:02;;;;;;;12.13;5.50;;;;;;;13.23;100.00;101713.38;5289146;28;20030;-74
2022/08/27 03:23:34;;;;;;;10.23;4.32;;;;;;;13.30;100.00;101705.50;5275000;28;20388;-76
2022/08/27 03:26:10;;;;;;;12.30;4.68;;;;;;;13.46;100.00;101700.16;5288610;28;20493;-73
2022/08/27 03:28:40;;;;;;;8.15;4.65;;;;;;;13.57;100.00;101716.03;5280625;28;20075;-75
2022/08/27 03:31:19;;;;;;;8.38;4.95;;;;;;;13.69;100.00;101709.31;5275899;28;20538;-75
2022/08/27 03:33:49;;;;;;;14.10;5.32;;;;;;;13.75;100.00;101705.09;5270463;28;20031;-74
2022/08/27 03:36:20;;;;;;;14.98;5.35;;;;;;;13.83;100.00;101704.28;5288904;28;20057;-75
2022/08/27 03:38:51;;;;;;;15.10;4.88;;;;;;;13.91;100.00;101701.59;5275753;28;20038;-76
2022/08/27 03:41:23;;;;;;;11.02;4.55;;;;;;;13.90;100.00;101700.72;5288501;28;20518;-75
2022/08/27 03:43:53;;;;;;;10.18;5.28;;;;;;;13.92;100.00;101708.69;5287781;28;20393;-76
2022/08/27 03:46:28;;;;;;;12.40;4.30;;;;;;;13.92;100.00;101706.81;5275626;28;20039;-76
2022/08/27 03:48:59;;;;;;;9.45;4.78;;;;;;;13.98;100.00;101710.69;5288794;28;20011;-76
2022/08/27 03:51:30;;;;;;;8.60;4.25;;;;;;;13.97;100.00;101706.31;5278166;28;20020;-75
2022/08/27 03:54:00;;;;;;;12.57;4.25;;;;;;;13.96;100.00;101705.47;5285005;28;20034;-76
2022/08/27 03:56:37;;;;;;;10.18;4.97;;;;;;;13.95;100.00;101706.47;5288143;28;20015;-76
2022/08/27 03:59:08;;;;;;;10.70;4.28;;;;;;;13.94;100.00;101701.25;5256356;28;20027;-75
2022/08/27 04:01:38;;;;;;;14.73;4.40;;;;;;;13.97;100.00;101700.94;5274606;28;20047;-74
2022/08/27 04:04:09;;;;;;;12.48;4.65;;;;;;;13.95;100.00;101698.38;5261816;28;20081;-75
2022/08/27 04:06:40;;;;;;;12.93;4.43;;;;;;;13.91;100.00;101704.31;5282015;28;20110;-76
2022/08/27 04:09:11;;;;;;;16.30;4.18;;;;;;;13.91;100.00;101698.91;5288475;28;20485;-74
2022/08/27 04:11:41;;;;;;;15.70;4.72;;;;;;;13.89;100.00;101700.91;5288335;28;20070;-74
2022/08/27 04:14:12;;;;;;;8.57;3.53;;;;;;;13.86;100.00;101699.41;5277303;28;20119;-75
2022/08/27 04:16:43;;;;;;;11.90;4.93;;;;;;;13.87;100.00;101701.09;5271146;28;20023;-75
2022/08/27 04:19:13;;;;;;;14.93;3.72;;;;;;;13.85;100.00;101705.78;5276121;28;20028;-74
2022/08/27 04:21:43;;;;;;;13.70;3.90;;;;;;;13.84;100.00;101705.97;5280214;28;20038;-74
2022/08/27 04:24:14;;;;;;;9.95;3.80;;;;;;;13.77;100.00;101699.56;5278875;28;20488;-73
2022/08/27 04:26:46;;;;;;;10.73;4.65;;;;;;;13.78;100.00;101706.63;5287320;28;20035;-74
2022/08/27 04:29:16;;;;;;;9.98;4.20;;;;;;;13.76;100.00;101692.50;5287280;28;20019;-74
2022/08/27 04:31:47;;;;;;;9.75;4.05;;;;;;;13.67;100.00;101695.16;5266764;28;20028;-74
2022/08/27 04:34:18;;;;;;;10.13;3.85;;;;;;;13.67;100.00;101691.63;5271523;28;20139;-74
2022/08/27 04:36:49;;;;;;;16.95;4.30;;;;;;;13.66;100.00;101688.09;5287765;28;20015;-75
2022/08/27 04:39:19;;;;;;;22.25;4.85;;;;;;;13.59;100.00;101695.13;5273683;28;20019;-74
2022/08/27 04:41:53;;;;;;;12.27;4.63;;;;;;;13.50;100.00;101701.50;5287652;28;20112;-74
2022/08/27 04:44:26;;;;;;;17.02;4.60;;;;;;;13.37;100.00;101701.16;5286848;28;20396;-75
2022/08/27 04:47:00;;;;;;;14.07;4.35;;;;;;;13.25;100.00;101705.13;5287129;28;20032;-74
2022/08/27 04:49:32;;;;;;;10.18;3.97;;;;;;;13.12;100.00;101706.41;5269141;28;20028;-74
2022/08/27 04:52:03;;;;;;;12.38;5.00;;;;;;;13.07;100.00;101702.53;5287505;28;20388;-74
2022/08/27 04:54:35;;;;;;;9.07;4.38;;;;;;;13.02;100.00;101703.00;5287325;28;20035;-74
2022/08/27 04:57:06;;;;;;;11.43;4.80;;;;;;;12.93;100.00;101706.66;5273682;28;20028;-73
2022/08/27 04:59:37;;;;;;;10.15;4.72;;;;;;;12.82;100.00;101704.25;5287609;28;20103;-73
2022/08/27 05:02:09;;;;;;;15.13;4.90;;;;;;;12.67;100.00;101712.91;5282952;28;20122;-73
2022/08/27 05:04:40;;;;;;;13.18;5.65;;;;;;;12.56;100.00;101715.03;5277856;28;20071;-72
2022/08/27 05:07:10;;;;;;;11.32;4.90;;;;;;;12.46;100.00;101709.75;5287035;28;20031;-72
2022/08/27 05:09:41;;;;;;;11.20;4.82;;;;;;;12.43;100.00;101712.75;5274159;28;20128;-73
2022/08/27 05:12:11;;;;;;;16.92;5.10;;;;;;;12.40;100.00;101716.59;5279843;28;20028;-73
2022/08/27 05:14:42;;;;;;;10.95;5.30;;;;;;;12.40;100.00;101716.59;5266262;28;20035;-73
2022/08/27 05:17:12;;;;;;;10.73;5.00;;;;;;;12.43;100.00;101721.66;5287321;28;20422;-74
2022/08/27 05:19:43;;;;;;;10.85;4.13;;;;;;;12.48;100.00;101728.41;5273079;28;20012;-73
2022/08/27 05:22:13;;;;;;;9.30;4.43;;;;;;;12.53;100.00;101726.09;5286815;28;20448;-73
2022/08/27 05:24:44;;;;;;;10.80;4.65;;;;;;;12.58;100.00;101734.56;5286143;28;20098;-73
2022/08/27 05:27:14;;;;;;;12.02;5.10;;;;;;;12.62;100.00;101735.94;5286413;28;20058;-73
2022/08/27 05:29:45;;;;;;;11.27;4.97;;;;;;;12.62;100.00;101734.06;5286390;28;20019;-73
2022/08/27 05:32:15;;;;;;;9.23;4.93;;;;;;;12.68;100.00;101732.59;5268480;28;20036;-73
2022/08/27 05:34:46;;;;;;;17.13;6.00;;;;;;;12.75;100.00;101724.72;5270988;28;20063;-73
2022/08/27 05:37:17;;;;;;;10.80;5.65;;;;;;;12.83;100.00;101728.31;5280175;28;20019;-73
2022/08/27 05:39:47;;;;;;;12.30;4.93;;;;;;;12.92;100.00;101726.53;5277665;28;20039;-73
2022/08/27 05:42:18;;;;;;;9.65;4.55;;;;;;;13.03;100.00;101728.94;5278091;28;20023;-72
2022/08/27 05:44:49;;;;;;;13.00;5.18;;;;;;;13.18;100.00;101732.69;5276128;28;20478;-73
2022/08/27 05:47:19;;;;;;;13.82;4.35;;;;;;;13.33;100.00;101734.81;5278811;28;20043;-73
2022/08/27 05:49:51;;;;;;;10.40;4.53;;;;;;;13.51;100.00;101732.88;5284198;28;20358;-73
2022/08/27 05:52:21;;;;;;;9.60;4.43;;;;;;;13.83;100.00;101742.03;5283992;28;20077;-73
2022/08/27 05:54:51;;;;;;;12.32;4.90;;;;;;;14.42;100.00;101740.06;5283989;28;20024;-73
2022/08/27 05:57:22;;;;;;;10.13;4.78;;;;;;;15.17;100.00;101735.19;5284412;28;20027;-73
2022/08/27 06:02:42;;;;;;;11.95;4.10;;;;;;;16.72;100.00;101742.28;5288156;28;20032;-74
2022/08/27 06:05:13;;;;;;;12.13;3.67;;;;;;;17.46;100.00;101736.00;5273990;28;20097;-72
2022/08/27 06:07:43;;;;;;;8.82;4.07;;;;;;;18.06;100.00;101734.81;5270233;28;20019;-73
2022/08/27 06:10:14;;;;;;;12.65;3.83;;;;;;;18.47;100.00;101726.81;5271729;28;20024;-73
2022/08/27 06:12:44;;;;;;;11.38;3.35;;;;;;;18.66;100.00;101730.72;5278005;28;20369;-73
2022/08/27 06:15:15;;;;;;;8.73;3.00;;;;;;;19.16;100.00;101726.03;5283727;28;20028;-73
2022/08/27 06:17:45;;;;;;;9.63;2.92;;;;;;;19.55;100.00;101733.53;5278548;28;20369;-73
2022/08/27 06:20:16;;;;;;;7.03;3.08;;;;;;;19.89;100.00;101731.78;5288125;28;20031;-74
2022/08/27 06:22:47;;;;;;;6.57;2.42;;;;;;;19.83;100.00;101729.84;5288595;28;20477;-73
2022/08/27 06:25:17;;;;;;;8.90;3.25;;;;;;;19.41;100.00;101724.47;5279871;28;20023;-73
2022/08/27 06:27:48;;;;;;;8.80;3.03;;;;;;;19.06;100.00;101736.44;5281319;28;20092;-73
2022/08/27 06:30:18;;;;;;;9.20;3.03;;;;;;;18.88;100.00;101729.66;5269618;28;20107;-73
2022/08/27 06:32:50;;;;;;;10.50;2.88;;;;;;;18.70;100.00;101726.59;5285228;28;20035;-73
2022/08/27 06:35:21;;;;;;;11.45;3.45;;;;;;;18.65;100.00;101731.75;5262718;28;20504;-72
2022/08/27 06:37:52;;;;;;;12.05;3.47;;;;;;;18.44;100.00;101732.66;5287157;28;20023;-73
2022/08/27 06:40:22;;;;;;;11.75;3.15;;;;;;;18.26;100.00;101732.28;5287739;28;20048;-73
2022/08/27 06:42:53;;;;;;;6.60;2.90;;;;;;;18.08;100.00;101724.59;5287951;28;20027;-73
2022/08/27 06:45:23;;;;;;;14.25;3.42;;;;;;;17.99;100.00;101720.34;5286784;28;20034;-73
2022/08/27 06:47:54;;;;;;;9.50;3.15;;;;;;;17.98;100.00;101726.81;5274194;28;20024;-73
2022/08/27 06:50:25;;;;;;;9.20;3.15;;;;;;;17.96;100.00;101720.72;5286910;28;20023;-72
2022/08/27 06:52:55;;;;;;;10.15;3.10;;;;;;;18.04;100.00;101717.88;5287437;28;20102;-72
2022/08/27 06:55:26;;;;;;;10.50;2.92;;;;;;;18.16;100.00;101721.75;5286595;28;20062;-73
2022/08/27 06:57:56;;;;;;;8.80;2.67;;;;;;;18.25;100.00;101722.44;5277269;28;20016;-73
2022/08/27 07:00:28;;;;;;;9.80;3.17;;;;;;;18.31;100.00;101724.38;5283801;28;20033;-73
2022/08/27 07:03:00;;;;;;;8.68;2.67;;;;;;;18.41;100.00;101726.75;5287608;28;20030;-73
2022/08/27 07:05:34;;;;;;;6.97;2.85;;;;;;;18.37;100.00;101726.31;5273043;28;20008;-72
2022/08/27 07:08:06;;;;;;;6.32;2.75;;;;;;;18.34;100.00;101727.56;5287019;28;20016;-72
2022/08/27 07:10:36;;;;;;;7.22;3.20;;;;;;;18.51;100.00;101730.81;5286750;28;20509;-73
2022/08/27 07:13:07;;;;;;;7.05;3.28;;;;;;;18.72;100.00;101727.22;5286910;28;20101;-72
2022/08/27 07:15:38;;;;;;;11.30;2.97;;;;;;;18.90;100.00;101732.16;5268170;28;20020;-73
2022/08/27 07:18:08;;;;;;;5.10;2.30;;;;;;;19.00;100.00;101726.38;5283029;28;20017;-73
2022/08/27 07:20:40;;;;;;;9.18;3.75;;;;;;;19.03;100.00;101732.25;5276943;28;20053;-73
2022/08/27 07:23:11;;;;;;;7.93;3.75;;;;;;;19.21;100.00;101731.72;5287025;28;20036;-73
2022/08/27 07:25:41;;;;;;;11.00;2.95;;;;;;;20.00;100.00;101733.06;5285933;28;20048;-72
2022/08/27 07:28:12;;;;;;;9.50;2.72;;;;;;;21.17;100.00;101735.06;5285825;28;20012;-73
2022/08/27 07:30:43;;;;;;;11.27;3.13;;;;;;;21.84;100.00;101743.81;5274166;28;20024;-73
2022/08/27 07:33:13;;;;;;;9.93;3.47;;;;;;;22.46;100.00;101745.72;5273917;28;20394;-73
2022/08/27 07:35:45;;;;;;;13.80;3.80;;;;;;;23.22;100.00;101741.84;5269168;28;20028;-73
2022/08/27 07:38:16;;;;;;;12.38;2.50;;;;;;;24.00;100.00;101749.25;5272250;28;20024;-73
2022/08/27 07:40:47;;;;;;;7.20;2.88;;;;;;;24.90;100.00;101753.69;5271139;28;20085;-73
2022/08/27 07:46:07;;;;;;;9.52;2.30;;;;;;;25.23;100.00;101744.81;5285636;28;20026;-73
2022/08/27 07:48:38;;;;;;;9.32;2.58;;;;;;;25.48;92.45;101744.50;5285425;28;20465;-73
2022/08/27 07:51:25;;;;;;;4.88;1.80;;;;;;;25.50;92.10;101739.63;5285885;28;20032;-73
2022/08/27 07:53:56;;;;;;;5.25;1.90;;;;;;;25.68;83.72;101748.75;5285897;28;20101;-73
2022/08/27 07:56:28;;;;;;;4.07;1.65;;;;;;;25.36;80.43;101740.97;5285154;28;20477;-73
2022/08/27 07:58:58;;;;;;;5.57;1.90;;;;;;;24.90;82.85;101741.84;5285377;28;20388;-73
2022/08/27 08:01:28;;;;;;;5.80;1.60;;;;;;;24.69;86.65;101746.03;5274021;28;20028;-73
2022/08/27 08:04:00;;;;;;;6.68;1.55;;;;;;;24.97;83.52;101748.91;5284055;28;20487;-73
2022/08/27 08:06:30;;;;;;;8.27;2.20;;;;;;;24.90;84.06;101758.31;5272341;28;20024;-73
2022/08/27 08:09:01;;;;;;;7.47;1.95;;;;;;;24.98;81.39;101747.00;5285163;28;20477;-73
2022/08/27 08:11:32;;;;;;;5.18;1.60;;;;;;;24.70;84.45;101753.19;5285168;28;20547;-73
2022/08/27 08:14:03;;;;;;;7.20;2.08;;;;;;;23.84;96.65;101749.06;5285696;28;20391;-72
2022/08/27 08:16:33;;;;;;;7.13;2.05;;;;;;;24.00;97.92;101749.25;5271367;28;20028;-73
2022/08/27 08:19:04;;;;;;;3.67;1.27;;;;;;;24.43;84.60;101748.16;5276025;28;20023;-73
2022/08/27 08:21:35;;;;;;;3.70;1.48;;;;;;;23.70;88.64;101748.44;5277819;28;20028;-73
2022/08/27 08:24:05;;;;;;;5.60;1.73;;;;;;;22.87;98.34;101759.88;5273739;28;20421;-73
2022/08/27 08:26:36;;;;;;;3.60;1.60;;;;;;;22.17;100.00;101762.78;5284866;28;20050;-73
2022/08/27 08:29:07;;;;;;;5.40;1.50;;;;;;;21.43;100.00;101762.28;5284885;28;20505;-73
2022/08/27 08:31:37;;;;;;;5.75;1.23;;;;;;;21.03;100.00;101763.44;5265412;28;20027;-72
2022/08/27 08:34:09;;;;;;;2.80;1.25;;;;;;;20.91;100.00;101760.53;5277692;28;20015;-73
2022/08/27 08:36:39;;;;;;;4.55;1.35;;;;;;;20.88;100.00;101769.13;5271567;28;20404;-73
2022/08/27 08:39:10;;;;;;;4.13;1.48;;;;;;;20.89;100.00;101766.22;5284742;28;20027;-73
2022/08/27 08:41:49;;;;;;;5.28;1.48;;;;;;;21.04;100.00;101759.69;5285333;28;20038;-72
2022/08/27 08:44:56;;;;;;;6.13;1.30;;;;;;;20.86;100.00;101766.63;5284614;28;20573;-73
2022/08/27 08:47:35;;;;;;;4.75;1.20;;;;;;;21.19;100.00;101758.38;5266596;28;20057;-73
2022/08/27 08:50:12;;;;;;;4.43;1.30;;;;;;;21.14;100.00;101771.00;5273177;28;20024;-73
2022/08/27 08:52:59;;;;;;;4.32;1.30;;;;;;;21.12;100.00;101767.63;5284364;28;20024;-73
2022/08/27 08:55:53;;;;;;;7.05;1.42;;;;;;;21.02;100.00;101772.69;5283838;28;20258;-73
2022/08/27 08:58:34;;;;;;;3.90;1.25;;;;;;;20.94;100.00;101763.69;5271960;28;20098;-73
2022/08/27 09:01:08;;;;;;;7.13;1.77;;;;;;;21.46;100.00;101764.59;5271937;28;20023;-73
2022/08/27 09:03:41;;;;;;;6.17;1.50;;;;;;;21.35;100.00;101761.72;5284382;28;20023;-73
2022/08/27 09:06:37;;;;;;;3.58;1.65;;;;;;;21.21;100.00;101771.81;5283971;28;20035;-72
2022/08/27 09:09:33;;;;;;;4.75;1.40;;;;;;;20.82;100.00;101767.25;5263314;28;20047;-73
2022/08/27 09:12:09;;;;;;;;;;;;;;;20.62;100.00;101773.56;5264657;28;20059;-72
2022/08/27 09:14:45;;;;;;;;;;;;;;;20.68;100.00;101772.75;5284453;28;19996;-73
2022/08/27 09:17:17;;;;;;;8.73;1.60;;;;;;;20.97;100.00;101775.22;5271814;28;19914;-73
2022/08/27 09:19:48;;;;;;;7.03;1.65;;;;;;;21.36;100.00;101771.59;5281875;28;20062;-73
2022/08/27 09:22:27;;;;;;;5.00;1.42;;;;;;;22.63;100.00;101761.56;5272981;28;20554;-73
2022/08/27 09:25:09;;;;;;;6.70;1.48;;;;;;;23.74;100.00;101768.78;5270599;28;20023;-73
2022/08/27 09:27:41;;;;;;;4.80;1.90;;;;;;;24.70;92.75;101764.16;5284522;28;20024;-73
2022/08/27 09:30:25;;;;;;;4.97;1.45;;;;;;;25.74;91.49;101769.75;5278357;28;20462;-73
2022/08/27 09:33:00;;;;;;;4.25;1.50;;;;;;;26.67;78.98;101762.94;5263288;28;20389;-73
2022/08/27 09:35:53;;;;;;;5.97;1.92;;;;;;;26.20;72.54;101771.47;5284108;28;20012;-73
2022/08/27 09:38:40;;;;;;;7.40;1.85;;;;;;;24.70;77.15;101770.50;5284183;28;20027;-73
2022/08/27 09:41:19;;;;;;;8.07;1.65;;;;;;;23.70;84.71;101770.34;5265506;28;20080;-73
2022/08/27 09:44:06;;;;;;;7.70;1.90;;;;;;;22.88;95.53;101769.75;5284311;28;20088;-73
2022/08/27 09:46:36;;;;;;;5.10;1.65;;;;;;;22.28;100.00;101766.69;5275141;28;20104;-73
2022/08/27 09:49:26;;;;;;;6.28;1.55;;;;;;;21.87;100.00;101757.88;5279738;28;20110;-73
2022/08/27 09:51:57;;;;;;;6.13;1.58;;;;;;;21.58;100.00;101763.91;5284195;28;20027;-73
2022/08/27 09:54:47;;;;;;;4.65;2.03;;;;;;;21.42;100.00;101768.81;5275861;28;20028;-73
2022/08/27 09:57:46;;;;;;;5.78;2.05;;;;;;;21.14;100.00;101760.91;5265986;28;20016;-73
2022/08/27 10:00:17;;;;;;;8.85;2.75;;;;;;;20.97;100.00;101767.88;5282196;28;20493;-72
2022/08/27 10:02:51;;;;;;;10.45;2.55;;;;;;;20.93;100.00;101772.94;5270735;28;20279;-73
2022/08/27 10:05:45;;;;;;;6.47;2.38;;;;;;;20.94;100.00;101766.41;5265496;28;20055;-73
2022/08/27 10:08:22;;;;;;;7.80;2.47;;;;;;;21.07;100.00;101767.44;5283451;28;20027;-73
2022/08/27 10:10:58;;;;;;;11.77;2.35;;;;;;;21.52;100.00;101762.06;5266152;28;20074;-73
2022/08/27 10:13:50;;;;;;;4.65;2.00;;;;;;;22.55;100.00;101759.97;5283894;28;20503;-73
2022/08/27 10:16:41;;;;;;;9.48;2.40;;;;;;;23.32;100.00;101745.94;5265107;28;20442;-73
2022/08/27 10:19:13;;;;;;;7.25;2.10;;;;;;;23.55;100.00;101758.94;5272310;28;20032;-73
2022/08/27 10:21:52;;;;;;;6.80;2.15;;;;;;;24.12;96.18;101749.28;5266090;28;20067;-73
2022/08/27 10:24:31;;;;;;;7.85;2.33;;;;;;;24.43;93.93;101745.44;5262202;28;20554;-73
2022/08/27 10:27:26;;;;;;;16.15;2.95;;;;;;;24.60;91.34;101753.81;5269098;28;20423;-73
2022/08/27 10:30:15;;;;;;;10.18;1.85;;;;;;;24.45;92.41;101746.06;5282018;28;20078;-73
2022/08/27 10:33:05;;;;;;;5.20;1.98;;;;;;;23.98;92.71;101751.38;5281860;28;20062;-74
2022/08/27 10:35:48;;;;;;;5.30;1.73;;;;;;;23.55;96.40;101750.72;5266210;28;20024;-74
2022/08/27 10:38:40;;;;;;;5.75;1.80;;;;;;;23.32;99.24;101744.03;5270753;28;20393;-73
2022/08/27 10:41:28;;;;;;;7.03;1.95;;;;;;;23.71;98.88;101741.88;5283415;28;20474;-73
2022/08/27 10:44:18;;;;;;;9.60;2.40;;;;;;;24.22;94.67;101743.22;5283835;28;20425;-73
2022/08/27 10:47:26;;;;;;;5.85;1.88;;;;;;;25.31;82.08;101735.38;5274857;28;20045;-73
2022/08/27 10:50:16;;;;;;;6.18;2.15;;;;;;;25.20;82.08;101736.22;5266029;28;20032;-73
2022/08/27 10:52:51;;;;;;;7.03;1.95;;;;;;;24.58;88.53;101734.00;5286633;28;20481;-73
2022/08/27 10:55:28;;;;;;;9.60;2.47;;;;;;;24.22;89.72;101729.53;5285272;28;20476;-73
2022/08/27 10:58:24;;;;;;;9.48;2.15;;;;;;;23.77;93.61;101732.72;5266019;28;20016;-73
2022/08/27 11:01:00;;;;;;;7.13;2.28;;;;;;;23.37;96.42;101733.22;5272967;28;20493;-73
2022/08/27 11:03:38;;;;;;;4.65;1.90;;;;;;;23.05;100.00;101734.47;5287234;28;20027;-73
2022/08/27 11:06:29;;;;;;;7.10;1.75;;;;;;;22.81;100.00;101734.25;5286720;28;20031;-73
2022/08/27 11:09:09;;;;;;;3.78;1.90;;;;;;;22.55;100.00;101729.06;5287040;28;20024;-73
2022/08/27 11:11:47;;;;;;;6.68;1.98;;;;;;;22.44;100.00;101727.84;5286966;28;20031;-73
2022/08/27 11:14:28;;;;;;;6.82;1.88;;;;;;;22.36;100.00;101737.19;5286378;28;20019;-73
2022/08/27 11:17:17;;;;;;;4.60;1.90;;;;;;;22.22;100.00;101731.00;5273292;28;20035;-73
2022/08/27 11:19:55;;;;;;;9.00;2.03;;;;;;;22.20;100.00;101729.56;5266661;28;20042;-72
2022/08/27 11:22:32;;;;;;;4.78;1.80;;;;;;;22.15;100.00;101723.91;5276343;28;20039;-72
2022/08/27 11:25:21;;;;;;;4.22;1.60;;;;;;;22.19;100.00;101727.88;5267163;28;20024;-73
2022/08/27 11:27:55;;;;;;;5.35;2.13;;;;;;;22.23;100.00;101731.81;5280926;28;20063;-72
2022/08/27 11:30:38;;;;;;;9.15;2.22;;;;;;;22.32;100.00;101718.72;5276685;28;20358;-72
2022/08/27 11:33:28;;;;;;;8.32;1.83;;;;;;;22.45;100.00;101729.56;5271162;28;20058;-73
2022/08/27 11:36:36;;;;;;;4.50;1.63;;;;;;;22.60;100.00;101729.22;5283397;28;20431;-74
2022/08/27 11:39:40;;;;;;;5.75;2.00;;;;;;;22.71;100.00;101731.22;5280277;28;20426;-74
2022/08/27 11:42:35;;;;;;;6.75;2.10;;;;;;;22.95;100.00;101724.88;5286053;28;20392;-74
2022/08/27 11:45:14;;;;;;;6.57;1.95;;;;;;;23.03;100.00;101736.59;5265096;28;20020;-74
2022/08/27 11:47:59;;;;;;;4.82;1.77;;;;;;;23.25;100.00;101724.13;5265726;28;20028;-74
2022/08/27 11:50:30;;;;;;;10.20;2.33;;;;;;;23.56;98.36;101719.53;5279784;28;20024;-74
2022/08/27 11:53:05;;;;;;;3.90;1.73;;;;;;;23.70;100.00;101726.53;5286680;28;20066;-73
2022/08/27 11:55:38;;;;;;;5.20;1.80;;;;;;;23.75;98.17;101729.41;5268669;28;20035;-74
2022/08/27 11:58:29;;;;;;;7.15;2.08;;;;;;;23.66;97.82;101726.13;5265141;28;20020;-73